Time;durP1;ratioP1;P1;durP2;ratioP2;P2;SDS_P1;SDS_P2;PMS_P1;PMS_P2;Temp;Humidity;BMP_temperature;BMP_pressure;BME280_temperature;BME280_humidity;BME280_pressure;Samples;Min_cycle;Max_cycle;Signal;HPM_P1;HPM_P2
2023/03/15 00:09:00;;;;;;;0.00;0.00;;;3.10;99.90;;;;;;20912329;28;20486;-52
2023/03/15 00:19:02;;;;;;;0.05;0.00;;;3.30;99.90;;;;;;20912900;28;20087;-52
2023/03/15 00:29:04;;;;;;;0.00;0.00;;;3.20;99.90;;;;;;20911757;28;20037;-49
2023/03/15 00:39:06;;;;;;;0.10;0.00;;;3.00;99.90;;;;;;20911293;28;20463;-49
2023/03/15 00:49:07;;;;;;;0.00;0.00;;;2.70;99.90;;;;;;20909420;28;20091;-44
2023/03/15 00:59:09;;;;;;;0.10;0.00;;;2.60;99.90;;;;;;20908464;28;20029;-48
2023/03/15 01:09:11;;;;;;;0.05;0.00;;;2.50;99.90;;;;;;20908414;28;20094;-48
2023/03/15 01:19:14;;;;;;;0.15;0.00;;;2.50;99.90;;;;;;20907120;28;20036;-51
2023/03/15 01:29:16;;;;;;;0.32;0.00;;;2.30;99.90;;;;;;20906512;28;20037;-51
2023/03/15 01:39:18;;;;;;;0.28;0.00;;;2.20;99.90;;;;;;20905118;28;20036;-45
2023/03/15 01:49:32;;;;;;;0.13;0.00;;;2.10;99.90;;;;;;20905610;28;20036;-51
2023/03/15 01:59:39;;;;;;;0.10;0.00;;;2.20;99.90;;;;;;20903825;28;20452;-45
2023/03/15 02:10:02;;;;;;;0.08;0.00;;;2.20;99.90;;;;;;20903529;28;20414;-49
2023/03/15 02:20:45;;;;;;;0.00;0.00;;;2.00;99.90;;;;;;20886189;28;20037;-46
2023/03/15 02:30:48;;;;;;;1.47;0.00;;;2.10;99.90;;;;;;20819986;28;20030;-51
2023/03/15 02:40:52;;;;;;;0.05;0.00;;;2.00;99.90;;;;;;20865235;28;20532;-47
2023/03/15 02:50:53;;;;;;;0.10;0.00;;;2.00;99.90;;;;;;20901441;28;20029;-45
2023/03/15 03:00:55;;;;;;;0.17;0.10;;;1.90;99.90;;;;;;20902867;28;20029;-49
2023/03/15 03:10:57;;;;;;;0.00;0.00;;;1.90;99.90;;;;;;20895516;28;20053;-46
2023/03/15 03:20:59;;;;;;;0.30;0.00;;;1.80;99.90;;;;;;20898910;28;20466;-51
2023/03/15 03:31:01;;;;;;;0.08;0.00;;;1.70;99.90;;;;;;20899891;28;20056;-50
2023/03/15 03:41:04;;;;;;;0.00;0.00;;;1.60;99.90;;;;;;20904469;28;20033;-53
2023/03/15 03:51:08;;;;;;;0.00;0.00;;;1.60;99.90;;;;;;20913853;28;20100;-50
2023/03/15 04:01:10;;;;;;;0.00;0.00;;;1.70;99.90;;;;;;20896421;28;20036;-50
2023/03/15 04:11:16;;;;;;;0.00;0.00;;;1.70;99.90;;;;;;20912671;28;20045;-50
2023/03/15 04:21:21;;;;;;;0.00;0.00;;;1.20;99.90;;;;;;20912506;28;20037;-47
2023/03/15 04:31:27;;;;;;;0.00;0.00;;;1.20;99.70;;;;;;20910777;28;20491;-50
2023/03/15 04:41:39;;;;;;;1.35;0.00;;;1.00;99.60;;;;;;20909691;28;20029;-46
2023/03/15 04:51:54;;;;;;;0.00;0.00;;;0.60;99.90;;;;;;20909074;28;20036;-50
2023/03/15 05:02:16;;;;;;;1.38;0.00;;;0.70;99.90;;;;;;20815532;28;20418;-47
2023/03/15 05:12:40;;;;;;;0.00;0.00;;;0.70;99.90;;;;;;20811670;28;20083;-45
2023/03/15 05:22:53;;;;;;;0.00;0.00;;;0.60;97.70;;;;;;20816074;28;20050;-46
2023/03/15 05:32:55;;;;;;;0.00;0.00;;;0.70;99.90;;;;;;20831938;28;20386;-48
2023/03/15 05:43:20;;;;;;;0.00;0.00;;;0.40;99.90;;;;;;20887337;28;20053;-51
2023/03/15 05:53:38;;;;;;;0.00;0.00;;;0.50;99.30;;;;;;20904634;28;20118;-45
2023/03/15 06:04:06;;;;;;;0.10;0.10;;;0.50;98.90;;;;;;20812299;28;20394;-45
2023/03/15 06:14:09;;;;;;;0.00;0.00;;;0.80;98.80;;;;;;20795950;28;20052;-51
2023/03/15 06:24:19;;;;;;;0.00;0.00;;;1.20;98.80;;;;;;20811205;28;20139;-52
2023/03/15 06:34:22;;;;;;;0.00;0.00;;;1.50;98.40;;;;;;20849522;28;20049;-53
2023/03/15 06:44:24;;;;;;;0.00;0.00;;;1.70;96.30;;;;;;20901796;28;20166;-51
2023/03/15 06:54:31;;;;;;;0.10;0.00;;;1.80;96.50;;;;;;20901686;28;20037;-51
2023/03/15 07:04:34;;;;;;;0.25;0.03;;;1.90;96.50;;;;;;20901639;28;20037;-50
2023/03/15 07:14:35;;;;;;;0.20;0.00;;;2.10;96.50;;;;;;20906517;28;20056;-53
2023/03/15 07:24:38;;;;;;;0.32;0.00;;;2.40;96.90;;;;;;20917201;28;20033;-53
2023/03/15 07:34:39;;;;;;;0.38;0.00;;;2.80;95.30;;;;;;20915614;28;20407;-55
2023/03/15 07:44:41;;;;;;;0.65;0.00;;;3.10;95.80;;;;;;20916493;28;20063;-48
2023/03/15 07:54:42;;;;;;;0.10;0.00;;;3.50;94.30;;;;;;20915211;28;20394;-56
2023/03/15 08:04:44;;;;;;;0.00;0.00;;;3.50;92.70;;;;;;20914381;28;20033;-46
2023/03/15 08:14:45;;;;;;;0.10;0.00;;;3.80;91.50;;;;;;20914209;28;20102;-56
2023/03/15 08:24:47;;;;;;;0.22;0.00;;;4.10;90.80;;;;;;20911946;28;20044;-56
2023/03/15 08:34:48;;;;;;;0.00;0.00;;;4.20;87.50;;;;;;20912079;28;20028;-47
2023/03/15 08:44:50;;;;;;;0.00;0.00;;;4.50;84.70;;;;;;20910253;28;20087;-45
2023/03/15 08:54:52;;;;;;;0.10;0.00;;;4.80;85.40;;;;;;20910247;28;20047;-55
2023/03/15 09:04:53;;;;;;;0.65;0.20;;;4.80;82.20;;;;;;20909471;28;20040;-49
2023/03/15 09:14:55;;;;;;;0.00;0.00;;;4.90;79.90;;;;;;20960881;28;20056;-55
2023/03/15 09:24:56;;;;;;;0.60;0.00;;;5.20;77.00;;;;;;20928324;28;20028;-47
2023/03/15 09:34:58;;;;;;;0.30;0.10;;;4.90;78.20;;;;;;20904383;28;20021;-54
2023/03/15 09:45:06;;;;;;;1.35;0.00;;;5.30;77.80;;;;;;20905543;28;20063;-48
2023/03/15 09:55:23;;;;;;;0.10;0.00;;;5.60;72.50;;;;;;20905833;28;20079;-54
2023/03/15 10:05:42;;;;;;;0.00;0.00;;;5.40;65.60;;;;;;20905094;28;20037;-54
2023/03/15 10:16:19;;;;;;;0.10;0.00;;;5.70;69.40;;;;;;20904421;28;20053;-47
2023/03/15 10:26:31;;;;;;;0.00;0.00;;;5.60;65.40;;;;;;20896541;28;20066;-51
2023/03/15 10:36:33;;;;;;;0.00;0.00;;;5.70;64.70;;;;;;20903499;28;20033;-50
2023/03/15 10:46:34;;;;;;;0.10;0.10;;;5.70;64.50;;;;;;20904572;28;20449;-53
2023/03/15 10:57:01;;;;;;;0.10;0.00;;;5.70;59.70;;;;;;20919661;28;20041;-49
2023/03/15 11:07:03;;;;;;;0.60;0.03;;;5.70;59.70;;;;;;20918703;28;20075;-52
2023/03/15 11:17:08;;;;;;;0.00;0.00;;;6.00;59.60;;;;;;20918234;28;20087;-52
2023/03/15 11:27:15;;;;;;;0.17;0.00;;;6.00;57.40;;;;;;20918060;28;20541;-50
2023/03/15 11:37:24;;;;;;;1.88;0.10;;;6.30;56.20;;;;;;20916439;28;20033;-45
2023/03/15 11:47:44;;;;;;;0.10;0.00;;;6.10;54.40;;;;;;20915732;28;20041;-49
2023/03/15 11:57:47;;;;;;;0.40;0.03;;;5.90;54.50;;;;;;20915248;28;20033;-51
2023/03/15 12:08:14;;;;;;;0.03;0.00;;;6.20;52.70;;;;;;20914180;28;20053;-48
2023/03/15 12:18:20;;;;;;;0.65;0.10;;;6.40;50.50;;;;;;20913505;28;20033;-51
2023/03/15 12:28:49;;;;;;;0.10;0.00;;;6.10;54.60;;;;;;20912175;28;20033;-52
2023/03/15 12:39:00;;;;;;;0.20;0.00;;;6.60;52.00;;;;;;20911457;28;20083;-45
2023/03/15 12:49:25;;;;;;;;;;;5.80;51.00;;;;;;20910172;28;20033;-53
2023/03/15 12:59:35;;;;;;;0.10;0.00;;;5.80;48.90;;;;;;20884071;28;19909;-50
2023/03/15 13:10:04;;;;;;;1.00;0.10;;;6.30;51.40;;;;;;20909363;28;20075;-54
2023/03/15 13:20:35;;;;;;;0.10;0.00;;;5.80;47.00;;;;;;20907351;28;20087;-50
2023/03/15 13:30:39;;;;;;;1.88;0.00;;;5.80;47.70;;;;;;20734204;28;20495;-51
2023/03/15 13:40:46;;;;;;;0.00;0.00;;;6.10;51.30;;;;;;20777296;28;20053;-50
2023/03/15 13:50:49;;;;;;;0.08;0.03;;;6.20;48.70;;;;;;20814445;28;20077;-48
2023/03/15 14:01:03;;;;;;;0.00;0.00;;;5.80;49.70;;;;;;20834285;28;20051;-51
2023/03/15 14:11:17;;;;;;;1.00;0.10;;;5.70;46.90;;;;;;20905102;28;20048;-44
2023/03/15 14:21:29;;;;;;;0.03;0.00;;;5.60;47.50;;;;;;20903753;28;20033;-47
2023/03/15 14:31:37;;;;;;;0.10;0.00;;;5.50;46.10;;;;;;20905120;28;20082;-47
2023/03/15 14:41:40;;;;;;;0.15;0.05;;;5.40;45.50;;;;;;20903461;28;20037;-45
2023/03/15 14:51:42;;;;;;;1.58;0.10;;;5.30;46.30;;;;;;20903305;28;20033;-48
2023/03/15 15:01:48;;;;;;;0.50;0.10;;;5.30;45.30;;;;;;20900023;28;20024;-49
2023/03/15 15:11:50;;;;;;;0.20;0.00;;;5.10;46.30;;;;;;20901977;28;20045;-55
2023/03/15 15:21:52;;;;;;;0.25;0.00;;;5.10;46.70;;;;;;20901830;28;20135;-55
2023/03/15 15:31:53;;;;;;;0.00;0.00;;;5.00;48.20;;;;;;20899111;28;20463;-47
2023/03/15 15:41:56;;;;;;;0.10;0.00;;;4.90;47.70;;;;;;20914926;28;20082;-54
2023/03/15 15:51:57;;;;;;;0.10;0.03;;;4.60;49.20;;;;;;20915582;28;20035;-55
2023/03/15 16:01:59;;;;;;;0.40;0.00;;;4.20;48.70;;;;;;20914935;28;20033;-55
2023/03/15 16:12:00;;;;;;;0.22;0.10;;;3.40;50.30;;;;;;20913550;28;20102;-52
2023/03/15 16:22:02;;;;;;;0.13;0.03;;;2.90;52.40;;;;;;20911631;28;20032;-55
2023/03/15 16:32:05;;;;;;;2.13;0.40;;;2.80;50.90;;;;;;20909731;28;20458;-55
2023/03/15 16:42:11;;;;;;;1.08;0.10;;;2.60;54.60;;;;;;20911682;28;20028;-47
2023/03/15 16:52:14;;;;;;;2.67;0.00;;;2.30;52.40;;;;;;20910427;28;20040;-45
2023/03/15 17:02:24;;;;;;;0.47;0.10;;;2.10;56.40;;;;;;20911348;28;20036;-44
2023/03/15 17:12:27;;;;;;;0.80;0.05;;;1.80;55.20;;;;;;20909834;28;20037;-48
2023/03/15 17:22:29;;;;;;;0.10;0.00;;;1.60;57.10;;;;;;20908468;28;20441;-46
2023/03/15 17:32:31;;;;;;;0.00;0.00;;;1.50;57.40;;;;;;20907580;28;20043;-47
2023/03/15 17:42:32;;;;;;;0.63;0.00;;;1.20;58.90;;;;;;20906658;28;20490;-47
2023/03/15 17:52:34;;;;;;;0.15;0.00;;;0.90;62.30;;;;;;20905979;28;20627;-46
2023/03/15 18:02:35;;;;;;;0.20;0.05;;;0.80;61.10;;;;;;20905605;28;20037;-47
2023/03/15 18:12:37;;;;;;;0.28;0.10;;;0.80;61.90;;;;;;20905510;28;20076;-46
2023/03/15 18:22:40;;;;;;;0.55;0.00;;;0.60;59.80;;;;;;20904250;28;20033;-45
2023/03/15 18:32:41;;;;;;;0.10;0.00;;;0.60;61.80;;;;;;20902616;28;20475;-49
2023/03/15 18:42:44;;;;;;;0.20;0.00;;;0.40;62.40;;;;;;20903239;28;20502;-50
2023/03/15 18:52:46;;;;;;;0.90;0.00;;;0.20;66.30;;;;;;20958165;28;20405;-46
2023/03/15 19:02:48;;;;;;;0.47;0.10;;;0.20;61.70;;;;;;20902730;28;20486;-46
2023/03/15 19:12:51;;;;;;;0.43;0.00;;;0.40;62.40;;;;;;20910878;28;20053;-46
2023/03/15 19:22:53;;;;;;;0.10;0.00;;;0.50;64.30;;;;;;20918968;28;20041;-44
2023/03/15 19:32:55;;;;;;;0.17;0.00;;;0.50;61.60;;;;;;20917107;28;20033;-47
2023/03/15 19:42:57;;;;;;;0.10;0.05;;;0.60;62.60;;;;;;20914994;28;20075;-46
2023/03/15 19:52:59;;;;;;;0.30;0.00;;;0.70;61.90;;;;;;20915313;28;20106;-50
2023/03/15 20:03:00;;;;;;;0.20;0.00;;;0.70;62.20;;;;;;20914776;28;20037;-46
2023/03/15 20:13:02;;;;;;;1.15;0.17;;;0.50;62.90;;;;;;20914370;28;20048;-47
2023/03/15 20:23:04;;;;;;;0.32;0.00;;;0.40;65.80;;;;;;20911013;28;20463;-49
2023/03/15 20:33:06;;;;;;;0.28;0.00;;;0.40;64.40;;;;;;20912977;28;20037;-48
2023/03/15 20:43:08;;;;;;;0.52;0.00;;;0.50;64.60;;;;;;20912047;28;20041;-47
2023/03/15 20:53:10;;;;;;;0.20;0.00;;;0.60;65.00;;;;;;20910664;28;20368;-47
2023/03/15 21:03:14;;;;;;;1.23;0.10;;;0.60;65.60;;;;;;20910445;28;20052;-46
2023/03/15 21:13:16;;;;;;;0.17;0.03;;;0.50;65.20;;;;;;20909142;28;20419;-46
2023/03/15 21:23:17;;;;;;;0.20;0.00;;;0.40;65.90;;;;;;20908578;28;20029;-46
2023/03/15 21:33:21;;;;;;;0.10;0.00;;;0.50;65.40;;;;;;20908930;28;20028;-46
2023/03/15 21:43:28;;;;;;;0.00;0.00;;;0.40;65.30;;;;;;20906537;28;20029;-49
2023/03/15 21:53:32;;;;;;;0.10;0.00;;;0.20;66.50;;;;;;20906362;28;20028;-45
2023/03/15 22:03:35;;;;;;;0.30;0.00;;;0.10;65.80;;;;;;20906584;28;20527;-46
2023/03/15 22:13:36;;;;;;;0.05;0.00;;;0.10;65.80;;;;;;20905001;28;20107;-50
2023/03/15 22:23:38;;;;;;;0.47;0.00;;;0.10;67.70;;;;;;20904649;28;20051;-49
2023/03/15 22:33:41;;;;;;;0.05;0.00;;;0.10;66.90;;;;;;20904077;28;20033;-47
2023/03/15 22:43:44;;;;;;;0.47;0.00;;;0.10;67.80;;;;;;20904864;28;20432;-46
2023/03/15 22:53:45;;;;;;;0.30;0.00;;;0.10;67.50;;;;;;20920033;28;20067;-49
2023/03/15 23:03:47;;;;;;;0.10;0.00;;;0.10;67.30;;;;;;20917964;28;20033;-46
2023/03/15 23:13:49;;;;;;;0.22;0.00;;;0.00;68.30;;;;;;20919086;28;20079;-49
2023/03/15 23:23:50;;;;;;;0.08;0.00;;;0.00;67.90;;;;;;20917391;28;20041;-46
2023/03/15 23:33:52;;;;;;;1.38;0.00;;;-0.10;68.30;;;;;;20918328;28;20037;-45
2023/03/15 23:43:54;;;;;;;0.00;0.00;;;0.00;69.90;;;;;;20916028;28;20479;-47
2023/03/15 23:53:55;;;;;;;0.08;0.00;;;-0.30;71.30;;;;;;20915248;28;20033;-48
